createdAt,value
2023-05-17T00:01:47.501Z,9.90
2023-05-17T00:04:16.505Z,9.90
2023-05-17T00:06:43.615Z,9.90
2023-05-17T00:09:11.881Z,9.90
2023-05-17T00:11:38.995Z,9.80
2023-05-17T00:14:06.059Z,9.70
2023-05-17T00:16:33.126Z,9.80
2023-05-17T00:18:59.950Z,9.60
2023-05-17T00:21:26.727Z,9.50
2023-05-17T00:23:53.802Z,9.50
2023-05-17T00:26:20.903Z,9.40
2023-05-17T00:28:47.890Z,9.40
2023-05-17T00:31:14.922Z,9.20
2023-05-17T00:33:42.023Z,9.10
2023-05-17T00:36:09.020Z,9.10
2023-05-17T00:38:36.952Z,9.20
2023-05-17T00:41:06.184Z,9.30
2023-05-17T00:43:33.105Z,9.30
2023-05-17T00:46:02.149Z,9.50
2023-05-17T00:48:29.046Z,9.50
2023-05-17T00:50:56.474Z,9.50
2023-05-17T00:53:23.489Z,9.40
2023-05-17T00:55:53.505Z,9.30
2023-05-17T00:58:21.929Z,9.40
2023-05-17T01:00:53.795Z,9.60
2023-05-17T01:03:24.467Z,9.60
2023-05-17T01:05:51.302Z,9.60
2023-05-17T01:08:18.335Z,9.50
2023-05-17T01:10:54.372Z,9.40
2023-05-17T01:13:30.493Z,9.30
2023-05-17T01:16:02.391Z,9.30
2023-05-17T01:18:40.578Z,9.30
2023-05-17T01:21:16.149Z,9.30
2023-05-17T01:23:56.144Z,9.30
2023-05-17T01:26:36.255Z,9.30
2023-05-17T01:29:09.803Z,9.30
2023-05-17T01:31:39.262Z,9.20
2023-05-17T01:34:09.514Z,9.00
2023-05-17T01:36:37.245Z,9.00
2023-05-17T01:39:03.943Z,9.20
2023-05-17T01:41:37.939Z,9.20
2023-05-17T01:44:18.585Z,9.00
2023-05-17T01:46:48.535Z,9.20
2023-05-17T01:49:23.946Z,9.20
2023-05-17T01:51:58.143Z,9.20
2023-05-17T01:54:31.239Z,9.00
2023-05-17T01:57:05.561Z,8.90
2023-05-17T01:59:33.858Z,9.00
2023-05-17T02:02:07.371Z,8.80
2023-05-17T02:04:35.981Z,8.80
2023-05-17T02:07:09.081Z,8.90
2023-05-17T02:09:36.094Z,9.00
2023-05-17T02:12:04.020Z,9.20
2023-05-17T02:14:31.072Z,9.20
2023-05-17T02:16:58.276Z,9.30
2023-05-17T02:19:25.218Z,9.30
2023-05-17T02:21:52.181Z,9.20
2023-05-17T02:24:24.165Z,9.00
2023-05-17T02:26:56.909Z,8.90
2023-05-17T02:29:32.423Z,8.90
2023-05-17T02:32:02.580Z,9.00
2023-05-17T02:34:29.545Z,8.90
2023-05-17T02:36:58.217Z,8.90
2023-05-17T02:39:25.559Z,8.70
2023-05-17T02:45:20.896Z,8.40
2023-05-17T02:51:25.854Z,8.70
2023-05-17T02:53:53.659Z,9.10
2023-05-17T02:59:42.369Z,8.90
2023-05-17T03:02:10.061Z,8.50
2023-05-17T03:04:38.142Z,8.50
2023-05-17T03:07:07.372Z,8.60
2023-05-17T03:09:38.556Z,8.60
2023-05-17T03:12:06.187Z,8.70
2023-05-17T03:14:35.230Z,8.60
2023-05-17T03:17:03.009Z,8.50
2023-05-17T03:19:29.666Z,8.60
2023-05-17T03:21:57.512Z,8.50
2023-05-17T03:24:27.462Z,8.40
2023-05-17T03:27:01.424Z,8.30
2023-05-17T03:29:28.073Z,8.10
2023-05-17T03:31:55.117Z,8.20
2023-05-17T03:34:22.196Z,8.30
2023-05-17T03:36:49.250Z,8.40
2023-05-17T03:39:16.459Z,8.50
2023-05-17T03:41:44.145Z,8.60
2023-05-17T03:44:12.005Z,8.70
2023-05-17T03:46:39.040Z,8.40
2023-05-17T03:49:06.113Z,8.40
2023-05-17T03:51:34.022Z,8.30
2023-05-17T03:54:01.893Z,8.10
2023-05-17T03:56:29.014Z,8.00
2023-05-17T03:58:55.915Z,8.10
2023-05-17T04:01:25.848Z,8.10
2023-05-17T04:04:01.328Z,8.10
2023-05-17T04:06:29.406Z,8.20
2023-05-17T04:08:56.474Z,8.30
2023-05-17T04:11:26.707Z,8.50
2023-05-17T04:13:54.096Z,8.70
2023-05-17T04:16:22.133Z,8.60
2023-05-17T04:18:52.730Z,8.50
2023-05-17T04:21:20.741Z,8.40
2023-05-17T04:23:47.756Z,8.40
2023-05-17T04:26:16.934Z,8.20
2023-05-17T04:28:44.719Z,8.30
2023-05-17T04:31:13.906Z,8.40
2023-05-17T04:33:40.951Z,8.30
2023-05-17T04:36:09.133Z,8.20
2023-05-17T04:38:36.239Z,8.20
2023-05-17T04:41:04.620Z,8.40
2023-05-17T04:43:31.724Z,8.40
2023-05-17T04:45:59.208Z,8.40
2023-05-17T04:48:27.490Z,8.20
2023-05-17T04:50:54.270Z,8.20
2023-05-17T04:53:21.488Z,8.30
2023-05-17T04:55:48.677Z,8.60
2023-05-17T04:58:15.412Z,8.80
2023-05-17T05:00:42.472Z,9.00
2023-05-17T05:03:09.592Z,9.20
2023-05-17T05:05:37.406Z,9.40
2023-05-17T05:08:04.470Z,9.30
2023-05-17T05:10:32.441Z,9.10
2023-05-17T05:12:59.389Z,9.20
2023-05-17T05:15:27.446Z,9.50
2023-05-17T05:17:54.748Z,9.50
2023-05-17T05:20:27.161Z,9.70
2023-05-17T05:22:57.413Z,9.90
2023-05-17T05:25:25.241Z,10.10
2023-05-17T05:27:52.277Z,10.30
2023-05-17T05:30:22.406Z,10.50
2023-05-17T05:32:50.350Z,10.80
2023-05-17T05:35:19.265Z,11.00
2023-05-17T05:37:51.998Z,11.00
2023-05-17T05:40:19.031Z,11.30
2023-05-17T05:42:48.885Z,11.60
2023-05-17T05:45:16.171Z,11.70
2023-05-17T05:47:47.971Z,11.70
2023-05-17T05:50:15.921Z,11.80
2023-05-17T05:52:42.859Z,11.90
2023-05-17T05:55:12.024Z,12.10
2023-05-17T05:57:39.790Z,12.40
2023-05-17T06:00:07.103Z,12.10
2023-05-17T06:05:08.395Z,12.50
2023-05-17T06:07:35.541Z,12.50
2023-05-17T06:10:02.338Z,12.50
2023-05-17T06:12:29.489Z,12.50
2023-05-17T06:15:02.731Z,12.60
2023-05-17T06:17:30.452Z,12.70
2023-05-17T06:19:57.548Z,13.00
2023-05-17T06:22:24.495Z,13.30
2023-05-17T06:24:54.498Z,14.00
2023-05-17T06:27:31.214Z,14.80
2023-05-17T06:30:00.528Z,14.80
2023-05-17T06:32:27.328Z,14.20
2023-05-17T06:34:55.382Z,13.90
2023-05-17T06:37:23.403Z,13.80
2023-05-17T06:40:00.180Z,13.80
2023-05-17T06:42:36.226Z,13.40
2023-05-17T06:45:05.368Z,12.90
2023-05-17T06:47:32.286Z,12.80
2023-05-17T06:50:01.448Z,13.10
2023-05-17T06:52:28.483Z,13.30
2023-05-17T06:54:55.565Z,13.60
2023-05-17T06:57:24.878Z,13.60
2023-05-17T06:59:57.323Z,13.60
2023-05-17T07:02:23.988Z,13.90
2023-05-17T07:04:51.147Z,14.30
2023-05-17T07:07:18.926Z,14.70
2023-05-17T07:09:46.789Z,14.60
2023-05-17T07:12:15.835Z,14.60
2023-05-17T07:14:43.707Z,15.10
2023-05-17T07:17:11.576Z,15.00
2023-05-17T07:19:41.652Z,15.20
2023-05-17T07:22:11.526Z,17.30
2023-05-17T07:24:40.536Z,18.40
2023-05-17T07:27:13.107Z,19.10
2023-05-17T07:29:42.187Z,19.50
2023-05-17T07:32:13.135Z,19.30
2023-05-17T07:34:40.372Z,19.50
2023-05-17T07:37:12.113Z,21.00
2023-05-17T07:39:42.099Z,20.70
2023-05-17T07:42:11.227Z,20.30
2023-05-17T07:44:43.892Z,20.40
2023-05-17T07:47:11.900Z,20.30
2023-05-17T07:49:51.266Z,20.50
2023-05-17T07:52:20.212Z,20.40
2023-05-17T07:54:55.103Z,20.70
2023-05-17T07:57:31.343Z,21.50
2023-05-17T08:00:00.534Z,21.90
2023-05-17T08:02:31.858Z,20.40
2023-05-17T08:05:02.927Z,20.90
2023-05-17T08:07:32.848Z,20.80
2023-05-17T08:09:59.907Z,20.80
2023-05-17T08:12:38.892Z,20.40
2023-05-17T08:15:05.960Z,20.90
2023-05-17T08:17:33.057Z,20.00
2023-05-17T08:20:07.979Z,19.80
2023-05-17T08:22:37.288Z,19.70
2023-05-17T08:25:04.510Z,20.70
2023-05-17T08:27:33.547Z,20.20
2023-05-17T08:30:00.652Z,19.20
2023-05-17T08:32:34.566Z,18.00
2023-05-17T08:35:02.514Z,17.20
2023-05-17T08:37:39.707Z,18.00
2023-05-17T08:40:08.040Z,18.90
2023-05-17T08:42:39.187Z,17.90
2023-05-17T08:45:11.954Z,17.40
2023-05-17T08:47:42.304Z,17.00
2023-05-17T08:50:09.318Z,16.70
2023-05-17T08:52:40.273Z,17.80
2023-05-17T08:55:08.982Z,17.10
2023-05-17T08:57:38.773Z,16.70
2023-05-17T09:00:14.940Z,16.50
2023-05-17T09:02:42.730Z,16.00
2023-05-17T09:05:16.504Z,15.60
2023-05-17T09:07:49.503Z,15.70
2023-05-17T09:10:23.710Z,16.30
2023-05-17T09:12:55.920Z,16.90
2023-05-17T09:15:24.149Z,16.60
2023-05-17T09:17:58.953Z,15.90
2023-05-17T09:20:36.499Z,15.90
2023-05-17T09:23:05.821Z,18.10
2023-05-17T09:25:36.459Z,19.90
2023-05-17T09:28:08.994Z,20.40
2023-05-17T09:30:39.762Z,20.40
2023-05-17T09:33:14.186Z,20.90
2023-05-17T09:35:44.034Z,21.00
2023-05-17T09:38:14.034Z,20.20
2023-05-17T09:40:54.207Z,19.00
2023-05-17T09:43:30.853Z,18.70
2023-05-17T09:46:01.186Z,18.30
2023-05-17T09:48:29.624Z,18.00
2023-05-17T09:51:10.671Z,18.40
2023-05-17T09:53:41.584Z,19.90
2023-05-17T09:56:09.959Z,20.40
2023-05-17T09:58:37.462Z,21.70
2023-05-17T10:01:05.805Z,21.80
2023-05-17T10:03:41.145Z,22.40
2023-05-17T10:06:16.601Z,22.10
2023-05-17T10:08:57.908Z,21.20
2023-05-17T10:11:28.250Z,21.20
2023-05-17T10:14:01.598Z,20.20
2023-05-17T10:16:29.877Z,19.50
2023-05-17T10:19:00.452Z,18.80
2023-05-17T10:24:10.067Z,18.30
2023-05-17T10:26:38.522Z,17.70
2023-05-17T10:29:07.682Z,18.10
2023-05-17T10:31:41.167Z,17.60
2023-05-17T10:36:49.302Z,20.20
2023-05-17T10:39:16.739Z,21.30
2023-05-17T10:41:47.248Z,21.80
2023-05-17T10:44:24.006Z,21.10
2023-05-17T10:46:56.153Z,22.00
2023-05-17T10:49:27.291Z,21.10
2023-05-17T10:51:54.689Z,22.20
2023-05-17T10:57:22.677Z,20.30
2023-05-17T11:00:00.459Z,20.10
2023-05-17T11:02:28.531Z,20.30
2023-05-17T11:04:56.571Z,19.30
2023-05-17T11:07:31.981Z,19.20
2023-05-17T11:10:10.582Z,18.80
2023-05-17T11:12:42.049Z,19.80
2023-05-17T11:15:16.029Z,20.00
2023-05-17T11:17:42.768Z,19.60
2023-05-17T11:20:17.152Z,20.00
2023-05-17T11:22:50.340Z,21.20
2023-05-17T11:25:19.122Z,21.20
2023-05-17T11:27:53.351Z,21.50
2023-05-17T11:33:00.342Z,22.20
2023-05-17T11:35:35.272Z,23.10
2023-05-17T11:38:24.095Z,22.50
2023-05-17T11:40:58.857Z,22.30
2023-05-17T11:43:27.383Z,22.00
2023-05-17T11:46:02.445Z,22.10
2023-05-17T11:48:32.170Z,22.70
2023-05-17T11:51:02.610Z,22.50
2023-05-17T11:53:31.753Z,22.20
2023-05-17T11:56:02.229Z,22.40
2023-05-17T11:58:31.561Z,21.70
2023-05-17T12:01:00.576Z,22.70
2023-05-17T12:03:29.246Z,22.60
2023-05-17T12:06:07.030Z,22.20
2023-05-17T12:08:45.079Z,23.00
2023-05-17T12:11:15.039Z,22.60
2023-05-17T12:13:42.690Z,21.80
2023-05-17T12:16:18.146Z,21.30
2023-05-17T12:18:50.684Z,21.10
2023-05-17T12:21:20.512Z,19.80
2023-05-17T12:23:51.145Z,20.60
2023-05-17T12:26:23.051Z,21.30
2023-05-17T12:28:59.794Z,21.70
2023-05-17T12:31:31.140Z,22.20
2023-05-17T12:34:12.325Z,22.20
2023-05-17T12:36:40.620Z,21.50
2023-05-17T12:39:09.845Z,21.10
2023-05-17T12:41:42.851Z,20.50
2023-05-17T12:44:16.500Z,19.40
2023-05-17T12:46:45.667Z,20.10
2023-05-17T12:49:12.905Z,21.50
2023-05-17T12:51:49.024Z,21.80
2023-05-17T12:54:27.077Z,20.10
2023-05-17T12:56:56.634Z,19.40
2023-05-17T12:59:26.054Z,19.60
2023-05-17T13:01:59.152Z,19.60
2023-05-17T13:04:34.567Z,18.60
2023-05-17T13:07:02.201Z,18.60
2023-05-17T13:09:45.543Z,18.50
2023-05-17T13:12:18.937Z,19.10
2023-05-17T13:14:51.593Z,19.30
2023-05-17T13:17:26.881Z,19.00
2023-05-17T13:19:58.052Z,18.40
2023-05-17T13:22:25.245Z,17.60
2023-05-17T13:24:55.824Z,17.30
2023-05-17T13:27:28.637Z,17.00
2023-05-17T13:29:58.510Z,17.40
2023-05-17T13:32:26.068Z,17.50
2023-05-17T13:34:52.999Z,17.20
2023-05-17T13:37:30.428Z,17.20
2023-05-17T13:39:57.138Z,16.90
2023-05-17T13:42:24.500Z,17.10
2023-05-17T13:44:53.619Z,17.00
2023-05-17T13:47:20.339Z,16.90
2023-05-17T13:49:51.285Z,16.90
2023-05-17T13:52:19.250Z,17.30
2023-05-17T13:54:49.085Z,17.60
2023-05-17T13:57:16.178Z,18.00
2023-05-17T13:59:45.642Z,18.00
2023-05-17T14:02:14.210Z,18.00
2023-05-17T14:04:40.994Z,18.00
2023-05-17T14:07:08.850Z,17.70
2023-05-17T14:09:36.898Z,17.90
2023-05-17T14:12:06.777Z,17.50
2023-05-17T14:14:41.844Z,17.70
2023-05-17T14:17:09.668Z,17.90
2023-05-17T14:19:37.656Z,17.90
2023-05-17T14:22:14.910Z,17.70
2023-05-17T14:24:41.884Z,17.70
2023-05-17T14:27:08.545Z,17.70
2023-05-17T14:29:35.588Z,17.50
2023-05-17T14:32:12.851Z,17.60
2023-05-17T14:34:40.822Z,17.70
2023-05-17T14:37:10.338Z,17.80
2023-05-17T14:39:39.375Z,17.50
2023-05-17T14:42:14.152Z,17.30
2023-05-17T14:44:41.239Z,17.00
2023-05-17T14:47:11.361Z,16.70
2023-05-17T14:49:47.612Z,17.00
2023-05-17T14:52:16.376Z,17.20
2023-05-17T14:54:49.365Z,17.40
2023-05-17T14:57:16.132Z,17.50
2023-05-17T14:59:45.194Z,17.60
2023-05-17T15:02:12.136Z,17.60
2023-05-17T15:04:39.257Z,17.70
2023-05-17T15:07:06.949Z,17.80
2023-05-17T15:09:44.264Z,17.70
2023-05-17T15:12:13.741Z,17.70
2023-05-17T15:14:40.823Z,17.50
2023-05-17T15:17:08.250Z,17.20
2023-05-17T15:19:35.470Z,17.20
2023-05-17T15:22:02.388Z,17.30
2023-05-17T15:24:29.763Z,17.20
2023-05-17T15:26:56.835Z,17.30
2023-05-17T15:29:23.507Z,17.40
2023-05-17T15:31:52.002Z,17.50
2023-05-17T15:34:19.020Z,17.30
2023-05-17T15:36:45.934Z,17.10
2023-05-17T15:39:14.139Z,17.20
2023-05-17T15:41:41.012Z,17.10
2023-05-17T15:44:09.005Z,17.00
2023-05-17T15:46:36.177Z,17.10
2023-05-17T15:49:03.326Z,17.30
2023-05-17T15:51:30.302Z,17.40
2023-05-17T15:53:57.301Z,17.30
2023-05-17T15:56:24.403Z,17.30
2023-05-17T15:58:51.632Z,17.40
2023-05-17T16:01:18.545Z,17.30
2023-05-17T16:03:46.609Z,17.20
2023-05-17T16:06:14.512Z,17.20
2023-05-17T16:08:41.980Z,17.10
2023-05-17T16:11:10.149Z,17.10
2023-05-17T16:13:37.046Z,17.00
2023-05-17T16:16:03.776Z,16.60
2023-05-17T16:18:31.836Z,16.80
2023-05-17T16:20:59.841Z,16.80
2023-05-17T16:23:26.906Z,16.70
2023-05-17T16:25:54.583Z,16.50
2023-05-17T16:28:21.656Z,16.40
2023-05-17T16:30:51.746Z,16.40
2023-05-17T16:33:20.538Z,16.30
2023-05-17T16:35:50.686Z,16.30
2023-05-17T16:38:17.711Z,16.30
2023-05-17T16:40:44.781Z,16.50
2023-05-17T16:43:15.840Z,16.50
2023-05-17T16:45:44.052Z,16.50
2023-05-17T16:48:14.400Z,16.30
2023-05-17T16:50:41.884Z,16.30
2023-05-17T16:53:08.751Z,16.30
2023-05-17T16:55:36.339Z,16.40
2023-05-17T16:58:03.349Z,16.30
2023-05-17T17:00:30.218Z,16.30
2023-05-17T17:02:58.055Z,16.10
2023-05-17T17:05:25.070Z,16.00
2023-05-17T17:07:52.076Z,16.00
2023-05-17T17:10:20.076Z,16.00
2023-05-17T17:12:47.235Z,15.80
2023-05-17T17:15:14.179Z,15.70
2023-05-17T17:17:41.157Z,15.80
2023-05-17T17:20:09.133Z,15.80
2023-05-17T17:22:36.194Z,15.70
2023-05-17T17:25:03.104Z,15.70
2023-05-17T17:27:30.129Z,15.60
2023-05-17T17:29:57.139Z,15.50
2023-05-17T17:32:24.235Z,15.40
2023-05-17T17:34:53.215Z,15.40
2023-05-17T17:37:19.924Z,15.30
2023-05-17T17:39:47.076Z,15.20
2023-05-17T17:42:14.036Z,15.20
2023-05-17T17:44:41.054Z,15.20
2023-05-17T17:47:08.190Z,15.30
2023-05-17T17:49:36.035Z,15.10
2023-05-17T17:52:03.160Z,15.10
2023-05-17T17:54:30.137Z,15.00
2023-05-17T17:56:57.152Z,14.90
2023-05-17T17:59:24.188Z,14.90
2023-05-17T18:01:51.345Z,14.90
2023-05-17T18:04:18.368Z,14.90
2023-05-17T18:06:45.891Z,14.80
2023-05-17T18:09:12.818Z,14.70
2023-05-17T18:11:39.854Z,14.70
2023-05-17T18:14:07.759Z,14.50
2023-05-17T18:16:34.794Z,14.60
2023-05-17T18:19:01.900Z,14.50
2023-05-17T18:21:31.702Z,14.50
2023-05-17T18:23:59.887Z,14.50
2023-05-17T18:26:27.148Z,14.40
2023-05-17T18:28:54.082Z,14.30
2023-05-17T18:31:20.724Z,14.20
2023-05-17T18:33:47.864Z,14.10
2023-05-17T18:36:14.810Z,14.10
2023-05-17T18:38:41.901Z,14.00
2023-05-17T18:41:08.929Z,14.00
2023-05-17T18:43:35.961Z,14.00
2023-05-17T18:46:03.074Z,13.90
2023-05-17T18:48:30.233Z,13.80
2023-05-17T18:50:57.608Z,13.70
2023-05-17T18:53:24.718Z,13.60
2023-05-17T18:55:51.691Z,13.60
2023-05-17T18:58:18.660Z,13.60
2023-05-17T19:00:48.073Z,13.50
2023-05-17T19:03:16.095Z,13.50
2023-05-17T19:05:43.998Z,13.50
2023-05-17T19:08:11.787Z,13.40
2023-05-17T19:10:39.880Z,13.40
2023-05-17T19:13:06.746Z,13.30
2023-05-17T19:15:33.862Z,13.20
2023-05-17T19:18:00.878Z,13.10
2023-05-17T19:20:28.177Z,13.10
2023-05-17T19:22:57.399Z,13.00
2023-05-17T19:25:24.391Z,13.00
2023-05-17T19:27:51.499Z,13.00
2023-05-17T19:30:18.426Z,12.90
2023-05-17T19:32:45.382Z,12.90
2023-05-17T19:35:12.223Z,12.90
2023-05-17T19:37:39.264Z,12.70
2023-05-17T19:40:06.440Z,12.70
2023-05-17T19:42:33.723Z,12.70
2023-05-17T19:45:00.429Z,12.70
2023-05-17T19:47:27.437Z,12.60
2023-05-17T19:49:54.504Z,12.40
2023-05-17T19:52:21.573Z,12.30
2023-05-17T19:54:48.697Z,12.20
2023-05-17T19:57:15.635Z,12.10
2023-05-17T19:59:42.806Z,12.00
2023-05-17T20:02:09.868Z,11.90
2023-05-17T20:04:36.743Z,11.80
2023-05-17T20:07:03.853Z,11.80
2023-05-17T20:09:32.198Z,11.70
2023-05-17T20:11:59.443Z,11.70
2023-05-17T20:14:26.846Z,11.70
2023-05-17T20:16:53.818Z,11.60
2023-05-17T20:19:20.835Z,11.60
2023-05-17T20:21:48.030Z,11.60
2023-05-17T20:24:14.909Z,11.50
2023-05-17T20:26:46.224Z,11.40
2023-05-17T20:29:13.006Z,11.40
2023-05-17T20:31:40.217Z,11.40
2023-05-17T20:34:07.100Z,11.40
2023-05-17T20:36:34.123Z,11.50
2023-05-17T20:39:01.228Z,11.40
2023-05-17T20:41:28.295Z,11.30
2023-05-17T20:43:55.378Z,11.30
2023-05-17T20:46:22.360Z,11.30
2023-05-17T20:48:49.940Z,11.30
2023-05-17T20:51:19.766Z,11.20
2023-05-17T20:53:46.860Z,11.10
2023-05-17T20:56:19.248Z,11.10
2023-05-17T20:58:46.662Z,10.90
2023-05-17T21:01:13.807Z,10.90
2023-05-17T21:03:41.097Z,11.00
2023-05-17T21:06:08.259Z,10.90
2023-05-17T21:08:35.386Z,10.90
2023-05-17T21:11:02.284Z,10.80
2023-05-17T21:13:30.993Z,10.70
2023-05-17T21:15:58.055Z,10.70
2023-05-17T21:18:25.163Z,10.60
2023-05-17T21:20:53.153Z,10.50
2023-05-17T21:23:21.992Z,10.40
2023-05-17T21:25:49.170Z,10.30
2023-05-17T21:28:16.965Z,10.40
2023-05-17T21:30:43.665Z,10.40
2023-05-17T21:33:10.683Z,10.50
2023-05-17T21:35:37.718Z,10.60
2023-05-17T21:38:04.730Z,10.40
2023-05-17T21:40:32.062Z,10.50
2023-05-17T21:42:59.184Z,10.60
2023-05-17T21:45:26.249Z,10.70
2023-05-17T21:47:53.469Z,10.50
2023-05-17T21:50:20.445Z,10.50
2023-05-17T21:52:47.563Z,10.40
2023-05-17T21:55:14.438Z,10.40
2023-05-17T21:57:42.083Z,10.40
2023-05-17T22:00:12.863Z,10.40
2023-05-17T22:02:41.418Z,10.40
2023-05-17T22:05:08.428Z,10.40
2023-05-17T22:07:35.614Z,10.20
2023-05-17T22:10:02.658Z,10.20
2023-05-17T22:12:29.743Z,9.90
2023-05-17T22:14:56.997Z,9.90
2023-05-17T22:17:35.186Z,9.70
2023-05-17T22:20:09.520Z,9.50
2023-05-17T22:22:37.465Z,9.50
2023-05-17T22:25:04.840Z,9.70
2023-05-17T22:27:31.832Z,9.80
2023-05-17T22:29:59.086Z,9.60
2023-05-17T22:32:26.203Z,9.40
2023-05-17T22:34:53.015Z,9.60
2023-05-17T22:37:22.624Z,9.80
2023-05-17T22:39:50.831Z,9.70
2023-05-17T22:42:17.876Z,9.60
2023-05-17T22:44:44.925Z,9.40
2023-05-17T22:47:14.564Z,9.20
2023-05-17T22:49:42.146Z,9.20
2023-05-17T22:52:09.064Z,9.20
2023-05-17T22:54:36.698Z,9.20
2023-05-17T22:57:05.273Z,9.50
2023-05-17T22:59:33.148Z,9.60
2023-05-17T23:02:01.670Z,9.70
2023-05-17T23:04:30.233Z,9.80
2023-05-17T23:07:02.243Z,9.80
2023-05-17T23:09:33.710Z,9.60
2023-05-17T23:12:05.610Z,9.30
2023-05-17T23:14:36.263Z,9.40
2023-05-17T23:17:04.686Z,9.30
2023-05-17T23:19:32.804Z,8.90
2023-05-17T23:22:03.997Z,8.90
2023-05-17T23:24:30.826Z,9.10
2023-05-17T23:26:57.904Z,9.20
2023-05-17T23:29:26.064Z,9.10
2023-05-17T23:31:53.458Z,9.10
2023-05-17T23:34:20.299Z,9.10
2023-05-17T23:36:47.591Z,9.30
2023-05-17T23:39:14.360Z,9.20
2023-05-17T23:41:43.152Z,9.20
2023-05-17T23:44:10.895Z,9.20
2023-05-17T23:46:38.189Z,9.20
2023-05-17T23:49:05.778Z,9.20
2023-05-17T23:51:34.696Z,9.30
2023-05-17T23:54:01.753Z,9.30
2023-05-17T23:56:28.743Z,9.30
2023-05-17T23:58:55.902Z,9.20
